Terminal Aerodrome Forecast
Issued by NWS Cleveland, OH

Home | Current Version | Previous Version | Graphics & Text | Print | Product List | Glossary On
Versions: 1 2 3 4 5 6 7 8 9 10 11 12 13 14 15 16 17 18 19 20 21 22
000
FTUS41 KCLE 250300 AAA
TAFYNG
TAF AMD
KYNG 250308Z 2503/2524 24014G20KT P6SM OVC040
      TEMPO 2505/2509 3SM -SHSN OVC025
     FM250900 24010KT 6SM -SN BKN025 OVC040
     FM251200 29008KT P6SM VCSH BKN025
     FM251600 30007KT P6SM SCT025 BKN250=

USA.gov is the U.S. government's official web portal to all federal, state and local government web resources and services.